sensor_id;sensor_type;location;lat;lon;timestamp;P1;durP1;ratioP1;P2;durP2;ratioP2
39620;SDS011;25309;48.686;9.170;2022-12-18T00:02:13;43.97;;;20.97;;
39620;SDS011;25309;48.686;9.170;2022-12-18T00:04:40;40.83;;;19.77;;
39620;SDS011;25309;48.686;9.170;2022-12-18T00:07:07;41.80;;;20.17;;
39620;SDS011;25309;48.686;9.170;2022-12-18T00:09:34;38.47;;;19.20;;
39620;SDS011;25309;48.686;9.170;2022-12-18T00:12:06;39.43;;;19.30;;
39620;SDS011;25309;48.686;9.170;2022-12-18T00:14:43;41.57;;;19.40;;
39620;SDS011;25309;48.686;9.170;2022-12-18T00:17:12;40.23;;;20.03;;
39620;SDS011;25309;48.686;9.170;2022-12-18T00:19:39;37.43;;;19.97;;
39620;SDS011;25309;48.686;9.170;2022-12-18T00:22:05;36.00;;;18.53;;
39620;SDS011;25309;48.686;9.170;2022-12-18T00:24:32;33.07;;;17.97;;
39620;SDS011;25309;48.686;9.170;2022-12-18T00:26:59;36.47;;;17.00;;
39620;SDS011;25309;48.686;9.170;2022-12-18T00:29:26;38.50;;;18.37;;
39620;SDS011;25309;48.686;9.170;2022-12-18T00:31:54;35.30;;;18.40;;
39620;SDS011;25309;48.686;9.170;2022-12-18T00:34:21;37.50;;;18.53;;
39620;SDS011;25309;48.686;9.170;2022-12-18T00:36:48;41.40;;;18.70;;
39620;SDS011;25309;48.686;9.170;2022-12-18T00:39:15;38.27;;;17.83;;
39620;SDS011;25309;48.686;9.170;2022-12-18T00:41:43;35.87;;;16.53;;
39620;SDS011;25309;48.686;9.170;2022-12-18T00:44:30;33.53;;;16.77;;
39620;SDS011;25309;48.686;9.170;2022-12-18T00:46:58;32.47;;;15.93;;
39620;SDS011;25309;48.686;9.170;2022-12-18T00:49:25;33.10;;;15.80;;
39620;SDS011;25309;48.686;9.170;2022-12-18T00:51:55;34.60;;;16.33;;
39620;SDS011;25309;48.686;9.170;2022-12-18T00:54:22;33.07;;;16.90;;
39620;SDS011;25309;48.686;9.170;2022-12-18T00:56:49;33.17;;;17.20;;
39620;SDS011;25309;48.686;9.170;2022-12-18T00:59:17;38.00;;;17.30;;
39620;SDS011;25309;48.686;9.170;2022-12-18T01:01:44;31.77;;;16.47;;
39620;SDS011;25309;48.686;9.170;2022-12-18T01:04:13;38.20;;;18.10;;
39620;SDS011;25309;48.686;9.170;2022-12-18T01:06:44;36.87;;;17.50;;
39620;SDS011;25309;48.686;9.170;2022-12-18T01:09:11;34.90;;;17.63;;
39620;SDS011;25309;48.686;9.170;2022-12-18T01:11:39;37.53;;;17.77;;
39620;SDS011;25309;48.686;9.170;2022-12-18T01:14:06;38.40;;;18.60;;
39620;SDS011;25309;48.686;9.170;2022-12-18T01:16:32;35.63;;;18.30;;
39620;SDS011;25309;48.686;9.170;2022-12-18T01:18:59;38.30;;;17.87;;
39620;SDS011;25309;48.686;9.170;2022-12-18T01:21:28;37.07;;;17.13;;
39620;SDS011;25309;48.686;9.170;2022-12-18T01:23:55;35.03;;;17.00;;
39620;SDS011;25309;48.686;9.170;2022-12-18T01:26:23;40.20;;;18.87;;
39620;SDS011;25309;48.686;9.170;2022-12-18T01:28:51;34.50;;;17.93;;
39620;SDS011;25309;48.686;9.170;2022-12-18T01:31:21;42.47;;;19.63;;
39620;SDS011;25309;48.686;9.170;2022-12-18T01:33:50;45.30;;;19.67;;
39620;SDS011;25309;48.686;9.170;2022-12-18T01:36:18;42.57;;;19.90;;
39620;SDS011;25309;48.686;9.170;2022-12-18T01:38:48;43.83;;;20.80;;
39620;SDS011;25309;48.686;9.170;2022-12-18T01:41:18;38.43;;;19.40;;
39620;SDS011;25309;48.686;9.170;2022-12-18T01:43:50;42.40;;;18.83;;
39620;SDS011;25309;48.686;9.170;2022-12-18T01:46:20;39.90;;;19.07;;
39620;SDS011;25309;48.686;9.170;2022-12-18T01:48:50;40.03;;;18.23;;
39620;SDS011;25309;48.686;9.170;2022-12-18T01:51:23;34.07;;;16.90;;
39620;SDS011;25309;48.686;9.170;2022-12-18T01:53:53;36.20;;;16.47;;
39620;SDS011;25309;48.686;9.170;2022-12-18T01:56:20;33.10;;;17.00;;
39620;SDS011;25309;48.686;9.170;2022-12-18T01:58:50;34.03;;;18.17;;
39620;SDS011;25309;48.686;9.170;2022-12-18T02:01:21;35.50;;;17.23;;
39620;SDS011;25309;48.686;9.170;2022-12-18T02:03:50;37.40;;;18.20;;
39620;SDS011;25309;48.686;9.170;2022-12-18T02:06:19;33.80;;;16.80;;
39620;SDS011;25309;48.686;9.170;2022-12-18T02:08:56;37.40;;;17.50;;
39620;SDS011;25309;48.686;9.170;2022-12-18T02:11:32;37.53;;;18.30;;
39620;SDS011;25309;48.686;9.170;2022-12-18T02:14:10;35.60;;;17.03;;
39620;SDS011;25309;48.686;9.170;2022-12-18T02:16:45;36.17;;;16.97;;
39620;SDS011;25309;48.686;9.170;2022-12-18T02:19:24;37.73;;;17.20;;
39620;SDS011;25309;48.686;9.170;2022-12-18T02:22:07;35.90;;;18.20;;
39620;SDS011;25309;48.686;9.170;2022-12-18T02:24:47;38.23;;;18.13;;
39620;SDS011;25309;48.686;9.170;2022-12-18T02:27:25;34.07;;;18.13;;
39620;SDS011;25309;48.686;9.170;2022-12-18T02:29:54;38.03;;;17.90;;
39620;SDS011;25309;48.686;9.170;2022-12-18T02:32:27;38.53;;;18.03;;
39620;SDS011;25309;48.686;9.170;2022-12-18T02:34:57;33.57;;;18.20;;
39620;SDS011;25309;48.686;9.170;2022-12-18T02:37:27;37.97;;;17.57;;
39620;SDS011;25309;48.686;9.170;2022-12-18T02:39:58;37.60;;;17.60;;
39620;SDS011;25309;48.686;9.170;2022-12-18T02:42:27;37.07;;;18.77;;
39620;SDS011;25309;48.686;9.170;2022-12-18T02:44:55;39.03;;;18.80;;
39620;SDS011;25309;48.686;9.170;2022-12-18T02:47:25;35.13;;;17.57;;
39620;SDS011;25309;48.686;9.170;2022-12-18T02:49:57;34.80;;;17.80;;
39620;SDS011;25309;48.686;9.170;2022-12-18T02:52:34;41.40;;;19.40;;
39620;SDS011;25309;48.686;9.170;2022-12-18T02:55:16;37.73;;;19.03;;
39620;SDS011;25309;48.686;9.170;2022-12-18T02:57:56;38.50;;;18.63;;
39620;SDS011;25309;48.686;9.170;2022-12-18T03:00:33;38.97;;;20.03;;
39620;SDS011;25309;48.686;9.170;2022-12-18T03:03:06;40.47;;;19.90;;
39620;SDS011;25309;48.686;9.170;2022-12-18T03:05:38;44.23;;;19.80;;
39620;SDS011;25309;48.686;9.170;2022-12-18T03:08:09;35.03;;;18.00;;
39620;SDS011;25309;48.686;9.170;2022-12-18T03:10:42;40.70;;;20.63;;
39620;SDS011;25309;48.686;9.170;2022-12-18T03:13:17;41.53;;;19.93;;
39620;SDS011;25309;48.686;9.170;2022-12-18T03:15:50;40.00;;;17.43;;
39620;SDS011;25309;48.686;9.170;2022-12-18T03:18:21;38.43;;;18.67;;
39620;SDS011;25309;48.686;9.170;2022-12-18T03:20:52;38.93;;;17.50;;
39620;SDS011;25309;48.686;9.170;2022-12-18T03:23:22;40.00;;;18.47;;
39620;SDS011;25309;48.686;9.170;2022-12-18T03:25:52;38.47;;;18.13;;
39620;SDS011;25309;48.686;9.170;2022-12-18T03:28:31;40.70;;;17.90;;
39620;SDS011;25309;48.686;9.170;2022-12-18T03:31:02;40.17;;;17.90;;
39620;SDS011;25309;48.686;9.170;2022-12-18T03:33:33;37.40;;;18.07;;
39620;SDS011;25309;48.686;9.170;2022-12-18T03:36:05;39.07;;;17.70;;
39620;SDS011;25309;48.686;9.170;2022-12-18T03:38:32;40.20;;;19.33;;
39620;SDS011;25309;48.686;9.170;2022-12-18T03:41:00;36.77;;;18.07;;
39620;SDS011;25309;48.686;9.170;2022-12-18T03:43:42;40.10;;;17.83;;
39620;SDS011;25309;48.686;9.170;2022-12-18T03:46:15;38.70;;;18.17;;
39620;SDS011;25309;48.686;9.170;2022-12-18T03:48:51;38.27;;;18.33;;
39620;SDS011;25309;48.686;9.170;2022-12-18T03:51:24;35.93;;;17.53;;
39620;SDS011;25309;48.686;9.170;2022-12-18T03:54:00;36.93;;;17.80;;
39620;SDS011;25309;48.686;9.170;2022-12-18T03:56:35;38.47;;;18.43;;
39620;SDS011;25309;48.686;9.170;2022-12-18T03:59:07;37.93;;;19.07;;
39620;SDS011;25309;48.686;9.170;2022-12-18T04:01:38;38.53;;;17.60;;
39620;SDS011;25309;48.686;9.170;2022-12-18T04:04:10;38.77;;;17.40;;
39620;SDS011;25309;48.686;9.170;2022-12-18T04:06:40;35.87;;;16.70;;
39620;SDS011;25309;48.686;9.170;2022-12-18T04:09:09;37.37;;;18.13;;
39620;SDS011;25309;48.686;9.170;2022-12-18T04:11:41;33.60;;;16.90;;
39620;SDS011;25309;48.686;9.170;2022-12-18T04:14:13;39.33;;;18.63;;
39620;SDS011;25309;48.686;9.170;2022-12-18T04:16:43;40.87;;;18.13;;
39620;SDS011;25309;48.686;9.170;2022-12-18T04:19:13;39.63;;;18.73;;
39620;SDS011;25309;48.686;9.170;2022-12-18T04:21:42;37.30;;;17.40;;
39620;SDS011;25309;48.686;9.170;2022-12-18T04:24:12;40.93;;;18.60;;
39620;SDS011;25309;48.686;9.170;2022-12-18T04:26:45;38.10;;;17.97;;
39620;SDS011;25309;48.686;9.170;2022-12-18T04:29:18;37.77;;;17.73;;
39620;SDS011;25309;48.686;9.170;2022-12-18T04:31:46;37.93;;;17.50;;
39620;SDS011;25309;48.686;9.170;2022-12-18T04:34:14;41.07;;;18.20;;
39620;SDS011;25309;48.686;9.170;2022-12-18T04:36:47;37.47;;;17.77;;
39620;SDS011;25309;48.686;9.170;2022-12-18T04:39:14;44.13;;;19.30;;
39620;SDS011;25309;48.686;9.170;2022-12-18T04:41:43;40.00;;;18.33;;
39620;SDS011;25309;48.686;9.170;2022-12-18T04:44:12;37.17;;;17.33;;
39620;SDS011;25309;48.686;9.170;2022-12-18T04:46:40;39.47;;;18.63;;
39620;SDS011;25309;48.686;9.170;2022-12-18T04:49:07;38.07;;;18.10;;
39620;SDS011;25309;48.686;9.170;2022-12-18T04:51:36;36.77;;;17.57;;
39620;SDS011;25309;48.686;9.170;2022-12-18T04:54:03;41.93;;;19.03;;
39620;SDS011;25309;48.686;9.170;2022-12-18T04:56:31;35.47;;;17.53;;
39620;SDS011;25309;48.686;9.170;2022-12-18T04:58:58;39.70;;;17.20;;
39620;SDS011;25309;48.686;9.170;2022-12-18T05:01:25;39.77;;;16.43;;
39620;SDS011;25309;48.686;9.170;2022-12-18T05:04:01;41.33;;;18.23;;
39620;SDS011;25309;48.686;9.170;2022-12-18T05:06:28;38.27;;;17.50;;
39620;SDS011;25309;48.686;9.170;2022-12-18T05:08:55;39.87;;;17.10;;
39620;SDS011;25309;48.686;9.170;2022-12-18T05:11:22;39.23;;;17.50;;
39620;SDS011;25309;48.686;9.170;2022-12-18T05:13:49;38.27;;;17.50;;
39620;SDS011;25309;48.686;9.170;2022-12-18T05:16:15;40.87;;;17.13;;
39620;SDS011;25309;48.686;9.170;2022-12-18T05:18:43;39.73;;;18.37;;
39620;SDS011;25309;48.686;9.170;2022-12-18T05:21:11;36.90;;;17.03;;
39620;SDS011;25309;48.686;9.170;2022-12-18T05:23:38;38.27;;;17.20;;
39620;SDS011;25309;48.686;9.170;2022-12-18T05:26:05;35.73;;;16.73;;
39620;SDS011;25309;48.686;9.170;2022-12-18T05:28:34;35.47;;;16.23;;
39620;SDS011;25309;48.686;9.170;2022-12-18T05:31:02;39.57;;;17.80;;
39620;SDS011;25309;48.686;9.170;2022-12-18T05:33:30;36.97;;;17.57;;
39620;SDS011;25309;48.686;9.170;2022-12-18T05:35:59;35.33;;;16.80;;
39620;SDS011;25309;48.686;9.170;2022-12-18T05:38:28;38.60;;;17.43;;
39620;SDS011;25309;48.686;9.170;2022-12-18T05:40:56;39.60;;;17.90;;
39620;SDS011;25309;48.686;9.170;2022-12-18T05:43:24;38.00;;;17.97;;
39620;SDS011;25309;48.686;9.170;2022-12-18T05:45:52;38.37;;;17.33;;
39620;SDS011;25309;48.686;9.170;2022-12-18T05:48:20;50.60;;;27.17;;
39620;SDS011;25309;48.686;9.170;2022-12-18T05:50:48;40.10;;;20.03;;
39620;SDS011;25309;48.686;9.170;2022-12-18T05:53:17;42.63;;;18.67;;
39620;SDS011;25309;48.686;9.170;2022-12-18T05:55:46;37.73;;;17.93;;
39620;SDS011;25309;48.686;9.170;2022-12-18T05:58:14;36.30;;;17.03;;
39620;SDS011;25309;48.686;9.170;2022-12-18T06:00:42;38.30;;;17.07;;
39620;SDS011;25309;48.686;9.170;2022-12-18T06:03:11;34.50;;;16.40;;
39620;SDS011;25309;48.686;9.170;2022-12-18T06:05:39;36.07;;;16.07;;
39620;SDS011;25309;48.686;9.170;2022-12-18T06:08:07;36.23;;;17.50;;
39620;SDS011;25309;48.686;9.170;2022-12-18T06:10:35;37.87;;;17.57;;
39620;SDS011;25309;48.686;9.170;2022-12-18T06:13:03;38.47;;;17.37;;
39620;SDS011;25309;48.686;9.170;2022-12-18T06:15:31;39.07;;;17.23;;
39620;SDS011;25309;48.686;9.170;2022-12-18T06:18:00;36.90;;;16.43;;
39620;SDS011;25309;48.686;9.170;2022-12-18T06:20:27;35.67;;;17.00;;
39620;SDS011;25309;48.686;9.170;2022-12-18T06:22:58;38.60;;;17.33;;
39620;SDS011;25309;48.686;9.170;2022-12-18T06:25:26;40.30;;;17.33;;
39620;SDS011;25309;48.686;9.170;2022-12-18T06:27:52;35.43;;;16.03;;
39620;SDS011;25309;48.686;9.170;2022-12-18T06:30:21;36.37;;;16.40;;
39620;SDS011;25309;48.686;9.170;2022-12-18T06:32:48;28.20;;;15.87;;
39620;SDS011;25309;48.686;9.170;2022-12-18T06:35:21;34.77;;;15.27;;
39620;SDS011;25309;48.686;9.170;2022-12-18T06:37:48;32.57;;;15.47;;
39620;SDS011;25309;48.686;9.170;2022-12-18T06:40:15;36.40;;;15.47;;
39620;SDS011;25309;48.686;9.170;2022-12-18T06:42:42;37.37;;;17.97;;
39620;SDS011;25309;48.686;9.170;2022-12-18T06:45:09;32.27;;;17.73;;
39620;SDS011;25309;48.686;9.170;2022-12-18T06:47:38;37.20;;;19.10;;
39620;SDS011;25309;48.686;9.170;2022-12-18T06:50:06;34.27;;;18.97;;
39620;SDS011;25309;48.686;9.170;2022-12-18T06:52:33;36.23;;;17.33;;
39620;SDS011;25309;48.686;9.170;2022-12-18T06:55:00;33.73;;;16.10;;
39620;SDS011;25309;48.686;9.170;2022-12-18T06:57:27;35.10;;;16.57;;
39620;SDS011;25309;48.686;9.170;2022-12-18T06:59:54;34.57;;;16.10;;
39620;SDS011;25309;48.686;9.170;2022-12-18T07:02:21;36.43;;;17.50;;
39620;SDS011;25309;48.686;9.170;2022-12-18T07:04:49;34.73;;;16.63;;
39620;SDS011;25309;48.686;9.170;2022-12-18T07:07:16;35.60;;;16.60;;
39620;SDS011;25309;48.686;9.170;2022-12-18T07:09:43;31.10;;;16.23;;
39620;SDS011;25309;48.686;9.170;2022-12-18T07:12:10;31.33;;;16.43;;
39620;SDS011;25309;48.686;9.170;2022-12-18T07:14:37;33.23;;;16.10;;
39620;SDS011;25309;48.686;9.170;2022-12-18T07:17:04;33.73;;;16.80;;
39620;SDS011;25309;48.686;9.170;2022-12-18T07:19:31;32.67;;;16.10;;
39620;SDS011;25309;48.686;9.170;2022-12-18T07:21:59;39.20;;;16.70;;
39620;SDS011;25309;48.686;9.170;2022-12-18T07:24:27;35.80;;;16.57;;
39620;SDS011;25309;48.686;9.170;2022-12-18T07:26:54;34.70;;;16.30;;
39620;SDS011;25309;48.686;9.170;2022-12-18T07:29:21;36.27;;;16.60;;
39620;SDS011;25309;48.686;9.170;2022-12-18T07:31:48;29.80;;;15.90;;
39620;SDS011;25309;48.686;9.170;2022-12-18T07:34:15;33.67;;;16.37;;
39620;SDS011;25309;48.686;9.170;2022-12-18T07:36:42;34.53;;;17.17;;
39620;SDS011;25309;48.686;9.170;2022-12-18T07:39:11;36.20;;;17.27;;
39620;SDS011;25309;48.686;9.170;2022-12-18T07:41:38;34.57;;;17.80;;
39620;SDS011;25309;48.686;9.170;2022-12-18T07:44:14;35.07;;;17.47;;
39620;SDS011;25309;48.686;9.170;2022-12-18T07:46:41;36.03;;;18.17;;
39620;SDS011;25309;48.686;9.170;2022-12-18T07:49:08;37.43;;;19.07;;
39620;SDS011;25309;48.686;9.170;2022-12-18T07:51:35;37.93;;;18.33;;
39620;SDS011;25309;48.686;9.170;2022-12-18T07:54:02;37.73;;;18.57;;
39620;SDS011;25309;48.686;9.170;2022-12-18T07:56:30;37.77;;;17.27;;
39620;SDS011;25309;48.686;9.170;2022-12-18T07:58:57;37.93;;;18.57;;
39620;SDS011;25309;48.686;9.170;2022-12-18T08:01:25;40.97;;;19.10;;
39620;SDS011;25309;48.686;9.170;2022-12-18T08:03:52;38.63;;;19.13;;
39620;SDS011;25309;48.686;9.170;2022-12-18T08:06:19;32.57;;;16.57;;
39620;SDS011;25309;48.686;9.170;2022-12-18T08:08:50;34.30;;;15.60;;
39620;SDS011;25309;48.686;9.170;2022-12-18T08:11:17;31.20;;;15.57;;
39620;SDS011;25309;48.686;9.170;2022-12-18T08:13:46;30.47;;;15.70;;
39620;SDS011;25309;48.686;9.170;2022-12-18T08:16:13;32.97;;;15.63;;
39620;SDS011;25309;48.686;9.170;2022-12-18T08:18:40;33.87;;;16.30;;
39620;SDS011;25309;48.686;9.170;2022-12-18T08:21:08;30.83;;;17.57;;
39620;SDS011;25309;48.686;9.170;2022-12-18T08:23:35;31.03;;;15.77;;
39620;SDS011;25309;48.686;9.170;2022-12-18T08:26:08;35.50;;;16.17;;
39620;SDS011;25309;48.686;9.170;2022-12-18T08:28:36;37.50;;;18.73;;
39620;SDS011;25309;48.686;9.170;2022-12-18T08:31:04;32.23;;;17.50;;
39620;SDS011;25309;48.686;9.170;2022-12-18T08:33:31;31.30;;;16.67;;
39620;SDS011;25309;48.686;9.170;2022-12-18T08:35:59;37.27;;;17.33;;
39620;SDS011;25309;48.686;9.170;2022-12-18T08:38:27;31.77;;;16.37;;
39620;SDS011;25309;48.686;9.170;2022-12-18T08:40:57;37.07;;;16.60;;
39620;SDS011;25309;48.686;9.170;2022-12-18T08:43:25;31.97;;;16.50;;
39620;SDS011;25309;48.686;9.170;2022-12-18T08:46:12;35.07;;;17.57;;
39620;SDS011;25309;48.686;9.170;2022-12-18T08:48:42;35.47;;;17.27;;
39620;SDS011;25309;48.686;9.170;2022-12-18T08:51:10;37.33;;;17.33;;
39620;SDS011;25309;48.686;9.170;2022-12-18T08:53:37;37.23;;;17.50;;
39620;SDS011;25309;48.686;9.170;2022-12-18T08:56:05;38.07;;;17.73;;
39620;SDS011;25309;48.686;9.170;2022-12-18T08:58:32;30.77;;;16.80;;
39620;SDS011;25309;48.686;9.170;2022-12-18T09:00:59;32.17;;;16.37;;
39620;SDS011;25309;48.686;9.170;2022-12-18T09:03:29;36.50;;;17.70;;
39620;SDS011;25309;48.686;9.170;2022-12-18T09:05:56;38.07;;;18.80;;
39620;SDS011;25309;48.686;9.170;2022-12-18T09:08:23;41.47;;;19.97;;
39620;SDS011;25309;48.686;9.170;2022-12-18T09:10:50;37.63;;;19.00;;
39620;SDS011;25309;48.686;9.170;2022-12-18T09:13:17;36.43;;;18.50;;
39620;SDS011;25309;48.686;9.170;2022-12-18T09:15:46;38.30;;;18.20;;
39620;SDS011;25309;48.686;9.170;2022-12-18T09:18:15;38.97;;;17.73;;
39620;SDS011;25309;48.686;9.170;2022-12-18T09:20:44;43.17;;;19.90;;
39620;SDS011;25309;48.686;9.170;2022-12-18T09:23:11;39.50;;;18.30;;
39620;SDS011;25309;48.686;9.170;2022-12-18T09:25:39;44.53;;;21.23;;
39620;SDS011;25309;48.686;9.170;2022-12-18T09:28:09;35.93;;;18.27;;
39620;SDS011;25309;48.686;9.170;2022-12-18T09:30:39;36.77;;;18.50;;
39620;SDS011;25309;48.686;9.170;2022-12-18T09:33:06;33.97;;;18.07;;
39620;SDS011;25309;48.686;9.170;2022-12-18T09:35:35;36.70;;;19.03;;
39620;SDS011;25309;48.686;9.170;2022-12-18T09:38:04;34.27;;;18.20;;
39620;SDS011;25309;48.686;9.170;2022-12-18T09:40:32;36.93;;;18.47;;
39620;SDS011;25309;48.686;9.170;2022-12-18T09:43:02;33.07;;;17.10;;
39620;SDS011;25309;48.686;9.170;2022-12-18T09:45:34;38.17;;;18.17;;
39620;SDS011;25309;48.686;9.170;2022-12-18T09:48:08;36.87;;;19.57;;
39620;SDS011;25309;48.686;9.170;2022-12-18T09:50:42;37.67;;;19.37;;
39620;SDS011;25309;48.686;9.170;2022-12-18T09:53:13;37.00;;;20.53;;
39620;SDS011;25309;48.686;9.170;2022-12-18T09:55:45;42.97;;;21.40;;
39620;SDS011;25309;48.686;9.170;2022-12-18T09:58:15;39.70;;;21.80;;
39620;SDS011;25309;48.686;9.170;2022-12-18T10:00:45;38.77;;;20.50;;
39620;SDS011;25309;48.686;9.170;2022-12-18T10:03:13;35.67;;;19.63;;
39620;SDS011;25309;48.686;9.170;2022-12-18T10:05:43;42.33;;;21.30;;
39620;SDS011;25309;48.686;9.170;2022-12-18T10:08:22;44.40;;;22.03;;
39620;SDS011;25309;48.686;9.170;2022-12-18T10:11:01;38.70;;;21.27;;
39620;SDS011;25309;48.686;9.170;2022-12-18T10:13:39;38.77;;;22.13;;
39620;SDS011;25309;48.686;9.170;2022-12-18T10:16:13;37.00;;;20.17;;
39620;SDS011;25309;48.686;9.170;2022-12-18T10:18:53;41.13;;;21.67;;
39620;SDS011;25309;48.686;9.170;2022-12-18T10:21:29;37.90;;;21.67;;
39620;SDS011;25309;48.686;9.170;2022-12-18T10:24:02;36.07;;;20.67;;
39620;SDS011;25309;48.686;9.170;2022-12-18T10:26:40;41.53;;;21.53;;
39620;SDS011;25309;48.686;9.170;2022-12-18T10:29:08;36.87;;;20.10;;
39620;SDS011;25309;48.686;9.170;2022-12-18T10:31:38;33.80;;;18.83;;
39620;SDS011;25309;48.686;9.170;2022-12-18T10:34:08;35.70;;;19.10;;
39620;SDS011;25309;48.686;9.170;2022-12-18T10:36:35;35.00;;;18.70;;
39620;SDS011;25309;48.686;9.170;2022-12-18T10:39:15;35.43;;;18.40;;
39620;SDS011;25309;48.686;9.170;2022-12-18T10:41:43;32.90;;;18.17;;
39620;SDS011;25309;48.686;9.170;2022-12-18T10:44:12;33.40;;;17.47;;
39620;SDS011;25309;48.686;9.170;2022-12-18T10:46:43;31.70;;;16.43;;
39620;SDS011;25309;48.686;9.170;2022-12-18T10:49:21;32.93;;;17.47;;
39620;SDS011;25309;48.686;9.170;2022-12-18T10:51:51;32.23;;;17.47;;
39620;SDS011;25309;48.686;9.170;2022-12-18T10:54:33;32.33;;;17.17;;
39620;SDS011;25309;48.686;9.170;2022-12-18T11:00:21;31.77;;;16.23;;
39620;SDS011;25309;48.686;9.170;2022-12-18T11:02:51;33.43;;;17.03;;
39620;SDS011;25309;48.686;9.170;2022-12-18T11:05:26;31.10;;;17.20;;
39620;SDS011;25309;48.686;9.170;2022-12-18T11:07:55;31.93;;;16.97;;
39620;SDS011;25309;48.686;9.170;2022-12-18T11:10:25;32.20;;;17.80;;
39620;SDS011;25309;48.686;9.170;2022-12-18T11:12:56;32.87;;;19.13;;
39620;SDS011;25309;48.686;9.170;2022-12-18T11:15:36;39.80;;;20.10;;
39620;SDS011;25309;48.686;9.170;2022-12-18T11:18:14;33.67;;;18.33;;
39620;SDS011;25309;48.686;9.170;2022-12-18T11:20:43;34.17;;;19.67;;
39620;SDS011;25309;48.686;9.170;2022-12-18T11:23:23;34.87;;;19.13;;
39620;SDS011;25309;48.686;9.170;2022-12-18T11:25:53;33.97;;;18.57;;
39620;SDS011;25309;48.686;9.170;2022-12-18T11:28:34;29.90;;;19.33;;
39620;SDS011;25309;48.686;9.170;2022-12-18T11:31:21;33.20;;;19.13;;
39620;SDS011;25309;48.686;9.170;2022-12-18T11:33:52;36.90;;;20.07;;
39620;SDS011;25309;48.686;9.170;2022-12-18T11:36:46;31.13;;;19.53;;
39620;SDS011;25309;48.686;9.170;2022-12-18T11:39:17;35.40;;;19.40;;
39620;SDS011;25309;48.686;9.170;2022-12-18T11:41:50;33.53;;;19.53;;
39620;SDS011;25309;48.686;9.170;2022-12-18T11:44:38;36.40;;;20.27;;
39620;SDS011;25309;48.686;9.170;2022-12-18T11:47:12;37.40;;;21.30;;
39620;SDS011;25309;48.686;9.170;2022-12-18T11:49:47;42.63;;;23.77;;
39620;SDS011;25309;48.686;9.170;2022-12-18T11:52:17;38.67;;;23.10;;
39620;SDS011;25309;48.686;9.170;2022-12-18T11:54:47;41.87;;;24.20;;
39620;SDS011;25309;48.686;9.170;2022-12-18T11:57:21;39.47;;;23.33;;
39620;SDS011;25309;48.686;9.170;2022-12-18T11:59:55;37.60;;;22.97;;
39620;SDS011;25309;48.686;9.170;2022-12-18T12:05:48;39.73;;;22.73;;
39620;SDS011;25309;48.686;9.170;2022-12-18T12:08:26;36.80;;;22.43;;
39620;SDS011;25309;48.686;9.170;2022-12-18T12:11:02;38.67;;;22.57;;
39620;SDS011;25309;48.686;9.170;2022-12-18T12:13:40;42.87;;;23.83;;
39620;SDS011;25309;48.686;9.170;2022-12-18T12:16:17;37.00;;;21.83;;
39620;SDS011;25309;48.686;9.170;2022-12-18T12:18:55;36.40;;;20.97;;
39620;SDS011;25309;48.686;9.170;2022-12-18T12:21:35;35.00;;;21.20;;
39620;SDS011;25309;48.686;9.170;2022-12-18T12:24:10;37.20;;;22.07;;
39620;SDS011;25309;48.686;9.170;2022-12-18T12:26:52;37.57;;;21.00;;
39620;SDS011;25309;48.686;9.170;2022-12-18T12:29:35;47.73;;;20.43;;
39620;SDS011;25309;48.686;9.170;2022-12-18T12:32:17;45.40;;;21.13;;
39620;SDS011;25309;48.686;9.170;2022-12-18T12:34:54;40.03;;;19.67;;
39620;SDS011;25309;48.686;9.170;2022-12-18T12:37:37;38.60;;;19.67;;
39620;SDS011;25309;48.686;9.170;2022-12-18T12:40:12;38.27;;;19.83;;
39620;SDS011;25309;48.686;9.170;2022-12-18T12:43:04;37.97;;;21.03;;
39620;SDS011;25309;48.686;9.170;2022-12-18T12:45:46;38.10;;;20.70;;
39620;SDS011;25309;48.686;9.170;2022-12-18T12:48:19;41.93;;;21.27;;
39620;SDS011;25309;48.686;9.170;2022-12-18T12:50:54;36.03;;;20.03;;
39620;SDS011;25309;48.686;9.170;2022-12-18T12:53:24;36.93;;;20.97;;
39620;SDS011;25309;48.686;9.170;2022-12-18T12:55:56;34.33;;;20.03;;
39620;SDS011;25309;48.686;9.170;2022-12-18T12:58:26;35.63;;;18.73;;
39620;SDS011;25309;48.686;9.170;2022-12-18T13:01:04;36.50;;;19.13;;
39620;SDS011;25309;48.686;9.170;2022-12-18T13:03:48;33.13;;;17.70;;
39620;SDS011;25309;48.686;9.170;2022-12-18T13:06:23;36.43;;;19.77;;
39620;SDS011;25309;48.686;9.170;2022-12-18T13:08:57;36.60;;;18.57;;
39620;SDS011;25309;48.686;9.170;2022-12-18T13:11:36;37.80;;;18.53;;
39620;SDS011;25309;48.686;9.170;2022-12-18T13:14:30;33.43;;;17.60;;
39620;SDS011;25309;48.686;9.170;2022-12-18T13:20:07;51.90;;;30.37;;
39620;SDS011;25309;48.686;9.170;2022-12-18T13:22:38;43.57;;;24.67;;
39620;SDS011;25309;48.686;9.170;2022-12-18T13:27:57;50.30;;;28.10;;
39620;SDS011;25309;48.686;9.170;2022-12-18T13:36:37;38.50;;;21.13;;
39620;SDS011;25309;48.686;9.170;2022-12-18T13:39:15;36.10;;;19.67;;
39620;SDS011;25309;48.686;9.170;2022-12-18T13:48:15;37.13;;;20.27;;
39620;SDS011;25309;48.686;9.170;2022-12-18T13:50:47;33.53;;;18.00;;
39620;SDS011;25309;48.686;9.170;2022-12-18T13:53:21;34.30;;;18.53;;
39620;SDS011;25309;48.686;9.170;2022-12-18T13:55:51;38.10;;;18.73;;
39620;SDS011;25309;48.686;9.170;2022-12-18T13:58:18;33.37;;;17.57;;
39620;SDS011;25309;48.686;9.170;2022-12-18T14:00:45;31.97;;;17.03;;
39620;SDS011;25309;48.686;9.170;2022-12-18T14:03:19;30.60;;;16.90;;
39620;SDS011;25309;48.686;9.170;2022-12-18T14:05:52;33.90;;;17.50;;
39620;SDS011;25309;48.686;9.170;2022-12-18T14:08:23;32.27;;;16.83;;
39620;SDS011;25309;48.686;9.170;2022-12-18T14:10:59;28.87;;;16.87;;
39620;SDS011;25309;48.686;9.170;2022-12-18T14:13:29;33.63;;;17.63;;
39620;SDS011;25309;48.686;9.170;2022-12-18T14:15:58;30.00;;;14.80;;
39620;SDS011;25309;48.686;9.170;2022-12-18T14:18:30;29.33;;;15.57;;
39620;SDS011;25309;48.686;9.170;2022-12-18T14:21:03;29.73;;;15.60;;
39620;SDS011;25309;48.686;9.170;2022-12-18T14:23:33;30.33;;;15.27;;
39620;SDS011;25309;48.686;9.170;2022-12-18T14:26:02;29.77;;;15.93;;
39620;SDS011;25309;48.686;9.170;2022-12-18T14:28:45;25.17;;;15.20;;
39620;SDS011;25309;48.686;9.170;2022-12-18T14:31:16;31.43;;;15.33;;
39620;SDS011;25309;48.686;9.170;2022-12-18T14:33:46;28.63;;;15.03;;
39620;SDS011;25309;48.686;9.170;2022-12-18T14:36:15;29.20;;;15.67;;
39620;SDS011;25309;48.686;9.170;2022-12-18T14:38:48;31.47;;;16.00;;
39620;SDS011;25309;48.686;9.170;2022-12-18T14:41:17;34.10;;;17.27;;
39620;SDS011;25309;48.686;9.170;2022-12-18T14:43:46;33.53;;;18.07;;
39620;SDS011;25309;48.686;9.170;2022-12-18T14:46:33;32.90;;;17.47;;
39620;SDS011;25309;48.686;9.170;2022-12-18T14:49:03;34.57;;;16.73;;
39620;SDS011;25309;48.686;9.170;2022-12-18T14:51:32;35.43;;;18.50;;
39620;SDS011;25309;48.686;9.170;2022-12-18T14:54:02;32.53;;;17.43;;
39620;SDS011;25309;48.686;9.170;2022-12-18T14:56:30;34.77;;;17.37;;
39620;SDS011;25309;48.686;9.170;2022-12-18T14:59:00;35.20;;;17.57;;
39620;SDS011;25309;48.686;9.170;2022-12-18T15:01:30;34.47;;;17.73;;
39620;SDS011;25309;48.686;9.170;2022-12-18T15:04:00;37.67;;;17.90;;
39620;SDS011;25309;48.686;9.170;2022-12-18T15:06:30;36.20;;;18.10;;
39620;SDS011;25309;48.686;9.170;2022-12-18T15:09:00;40.17;;;21.13;;